PWSweather.com
Personal Weather Stations
Station Observations
KMAMEDFI2
Medfield, MA 02052

Medfield, MA 02052

Lat: 42.1900822, Lon: -71.3296889

Elevation: 138

Station Type: Rainwise WS MK-III

http://www.medfieldweather.com

High Low Average
Temperature 54.8°F12.7°C 32.1°F0.1°C 38.4°F3.6°C
Dew Point 54.0°F12.2°C 30.8°F-0.7°C 37.3°F2.9°C
Winds 5.8 mph 9.3 kmh Calm Calm 1.0 mph SW1.6 kmh SW
Wind Gusts 11.5 mph18.5 kmh -- 2.0 mph3.2 kmh
Humidity 97% 95% 96%
Pressure 30.11 in1019.6 mb 29.48 in998.3 mb -
Precipitation 1.14 in29.0 mm - -
Hour Temp Dew Point Humidity Winds Wind Gusts Pressure Precip Precip Rate Daily Precip Total
12:00 AM 35.7°F2.1°C 34.4°F1.3°C 95% 2.3 mph W3.7 kmh W 2.3 mph3.7 kmh 30.12 in1020.0 mb - 0.00 in0.0 mm 0.13 in3.3 mm
12:10 AM 35.4°F1.9°C 34.1°F1.2°C 95% 2.3 mph WSW3.7 kmh WSW 2.3 mph3.7 kmh 30.12 in1020.0 mb - 0.00 in0.0 mm 0.13 in3.3 mm
12:20 AM 35.2°F1.8°C 33.9°F1.1°C 95% Calm Calm -- 30.12 in1020.0 mb - 0.00 in0.0 mm 0.13 in3.3 mm
12:30 AM 35.0°F1.7°C 33.7°F0.9°C 95% 1.2 mph WSW1.9 kmh WSW 2.3 mph3.7 kmh 30.12 in1020.0 mb - 0.00 in0.0 mm 0.13 in3.3 mm
12:40 AM 34.9°F1.6°C 33.6°F0.9°C 95% Calm Calm -- 30.11 in1019.6 mb - 0.00 in0.0 mm 0.13 in3.3 mm
12:50 AM 34.7°F1.5°C 33.4°F0.8°C 95% Calm Calm -- 30.11 in1019.6 mb - 0.00 in0.0 mm 0.13 in3.3 mm
01:00 AM 34.6°F1.4°C 33.3°F0.7°C 95% 2.3 mph NW3.7 kmh NW 2.3 mph3.7 kmh 30.11 in1019.6 mb - 0.00 in0.0 mm 0.00 in0.0 mm
01:10 AM 34.5°F1.4°C 33.2°F0.7°C 95% Calm Calm -- 30.10 in1019.3 mb - 0.00 in0.0 mm 0.00 in0.0 mm
01:20 AM 34.3°F1.3°C 33.0°F0.6°C 95% 1.2 mph NW1.9 kmh NW 2.3 mph3.7 kmh 30.10 in1019.3 mb - 0.00 in0.0 mm 0.00 in0.0 mm
01:30 AM 34.3°F1.3°C 33.0°F0.6°C 95% 1.2 mph NW1.9 kmh NW 2.3 mph3.7 kmh 30.10 in1019.3 mb - 0.00 in0.0 mm 0.00 in0.0 mm
01:40 AM 34.2°F1.2°C 32.9°F0.5°C 95% Calm Calm -- 30.10 in1019.3 mb - 0.00 in0.0 mm 0.00 in0.0 mm
01:50 AM 34.1°F1.2°C 32.8°F0.4°C 95% Calm Calm -- 30.10 in1019.3 mb - 0.00 in0.0 mm 0.00 in0.0 mm
02:00 AM 34.1°F1.2°C 32.8°F0.4°C 95% Calm Calm 2.3 mph3.7 kmh 30.10 in1019.3 mb - 0.00 in0.0 mm 0.00 in0.0 mm
02:10 AM 34.0°F1.1°C 32.7°F0.4°C 95% Calm Calm -- 30.09 in1019.0 mb - 0.00 in0.0 mm 0.00 in0.0 mm
02:20 AM 33.9°F1.1°C 32.6°F0.3°C 95% Calm Calm -- 30.08 in1018.6 mb - 0.00 in0.0 mm 0.00 in0.0 mm
02:30 AM 33.8°F1.0°C 32.5°F0.3°C 95% 1.2 mph NW1.9 kmh NW 1.2 mph1.9 kmh 30.08 in1018.6 mb - 0.00 in0.0 mm 0.00 in0.0 mm
02:40 AM 33.7°F0.9°C 32.4°F0.2°C 95% 2.3 mph W3.7 kmh W 2.3 mph3.7 kmh 30.07 in1018.3 mb - 0.00 in0.0 mm 0.00 in0.0 mm
02:50 AM 33.5°F0.8°C 32.2°F0.1°C 95% 2.3 mph S3.7 kmh S 2.3 mph3.7 kmh 30.06 in1017.9 mb - 0.00 in0.0 mm 0.00 in0.0 mm
03:00 AM 33.4°F0.8°C 32.1°F0.1°C 95% 1.2 mph N1.9 kmh N 1.2 mph1.9 kmh 30.06 in1017.9 mb - 0.00 in0.0 mm 0.00 in0.0 mm
03:10 AM 33.3°F0.7°C 32.0°F0.0°C 95% Calm Calm -- 30.06 in1017.9 mb - 0.00 in0.0 mm 0.00 in0.0 mm
03:20 AM 33.2°F0.7°C 31.9°F-0.1°C 95% Calm Calm -- 30.06 in1017.9 mb - 0.00 in0.0 mm 0.00 in0.0 mm
03:30 AM 33.0°F0.6°C 31.7°F-0.2°C 95% 1.2 mph ESE1.9 kmh ESE 2.3 mph3.7 kmh 30.05 in1017.6 mb - 0.00 in0.0 mm 0.00 in0.0 mm
03:40 AM 32.9°F0.5°C 31.6°F-0.2°C 95% 1.2 mph WNW1.9 kmh WNW 1.2 mph1.9 kmh 30.04 in1017.3 mb - 0.00 in0.0 mm 0.00 in0.0 mm
03:50 AM 32.8°F0.4°C 31.5°F-0.3°C 95% Calm Calm 2.3 mph3.7 kmh 30.03 in1016.9 mb - 0.00 in0.0 mm 0.00 in0.0 mm
04:00 AM 32.7°F0.4°C 31.4°F-0.3°C 95% 1.2 mph W1.9 kmh W 1.2 mph1.9 kmh 30.03 in1016.9 mb - 0.00 in0.0 mm 0.00 in0.0 mm
04:10 AM 32.6°F0.3°C 31.3°F-0.4°C 95% Calm Calm 2.3 mph3.7 kmh 30.03 in1016.9 mb - 0.00 in0.0 mm 0.00 in0.0 mm
04:20 AM 32.5°F0.3°C 31.2°F-0.4°C 95% 1.2 mph NNW1.9 kmh NNW 2.3 mph3.7 kmh 30.02 in1016.6 mb - 0.00 in0.0 mm 0.00 in0.0 mm
04:30 AM 32.4°F0.2°C 31.1°F-0.5°C 95% 1.2 mph N1.9 kmh N 3.5 mph5.6 kmh 30.01 in1016.3 mb - 0.00 in0.0 mm 0.00 in0.0 mm
04:40 AM 32.3°F0.2°C 31.0°F-0.6°C 95% 4.6 mph WNW7.4 kmh WNW 5.8 mph9.3 kmh 30.01 in1016.3 mb - 0.00 in0.0 mm 0.00 in0.0 mm
04:50 AM 32.2°F0.1°C 30.9°F-0.6°C 95% 1.2 mph NE1.9 kmh NE 1.2 mph1.9 kmh 30.00 in1015.9 mb - 0.00 in0.0 mm 0.00 in0.0 mm
05:00 AM 32.1°F0.1°C 30.8°F-0.7°C 95% Calm Calm 2.3 mph3.7 kmh 29.99 in1015.6 mb - 0.00 in0.0 mm 0.00 in0.0 mm
05:10 AM 32.1°F0.1°C 30.8°F-0.7°C 95% Calm Calm -- 29.98 in1015.2 mb - 0.00 in0.0 mm 0.00 in0.0 mm
05:20 AM 32.1°F0.1°C 30.8°F-0.7°C 95% 1.2 mph NE1.9 kmh NE 1.2 mph1.9 kmh 29.98 in1015.2 mb - 0.00 in0.0 mm 0.00 in0.0 mm
05:30 AM 32.2°F0.1°C 30.9°F-0.6°C 95% 1.2 mph WSW1.9 kmh WSW 1.2 mph1.9 kmh 29.98 in1015.2 mb - 0.00 in0.0 mm 0.00 in0.0 mm
05:40 AM 32.2°F0.1°C 30.9°F-0.6°C 95% Calm Calm -- 29.98 in1015.2 mb - 0.00 in0.0 mm 0.00 in0.0 mm
05:50 AM 32.2°F0.1°C 30.9°F-0.6°C 95% 1.2 mph SSW1.9 kmh SSW 2.3 mph3.7 kmh 29.97 in1014.9 mb - 0.00 in0.0 mm 0.00 in0.0 mm
06:00 AM 32.2°F0.1°C 30.9°F-0.6°C 95% Calm Calm 2.3 mph3.7 kmh 29.96 in1014.6 mb - 0.00 in0.0 mm 0.00 in0.0 mm
06:10 AM 32.2°F0.1°C 30.9°F-0.6°C 95% Calm Calm -- 29.96 in1014.6 mb - 0.00 in0.0 mm 0.00 in0.0 mm
06:20 AM 32.2°F0.1°C 31.0°F-0.6°C 95% Calm Calm -- 29.95 in1014.2 mb - 0.00 in0.0 mm 0.00 in0.0 mm
06:30 AM 32.2°F0.1°C 30.9°F-0.6°C 95% 1.2 mph NNE1.9 kmh NNE 1.2 mph1.9 kmh 29.94 in1013.9 mb - 0.00 in0.0 mm 0.00 in0.0 mm
06:40 AM 32.2°F0.1°C 30.9°F-0.6°C 95% Calm Calm -- 29.94 in1013.9 mb - 0.00 in0.0 mm 0.00 in0.0 mm
06:50 AM 32.2°F0.1°C 30.9°F-0.6°C 95% 1.2 mph NW1.9 kmh NW 2.3 mph3.7 kmh 29.93 in1013.5 mb - 0.00 in0.0 mm 0.00 in0.0 mm
07:00 AM 32.2°F0.1°C 31.0°F-0.6°C 95% 1.2 mph SW1.9 kmh SW 2.3 mph3.7 kmh 29.92 in1013.2 mb - 0.00 in0.0 mm 0.00 in0.0 mm
07:10 AM 32.3°F0.2°C 31.0°F-0.6°C 95% Calm Calm 2.3 mph3.7 kmh 29.93 in1013.5 mb - 0.00 in0.0 mm 0.00 in0.0 mm
07:20 AM 32.3°F0.2°C 31.0°F-0.6°C 95% 1.2 mph WNW1.9 kmh WNW 2.3 mph3.7 kmh 29.93 in1013.5 mb - 0.00 in0.0 mm 0.00 in0.0 mm
07:30 AM 32.3°F0.2°C 31.0°F-0.6°C 95% Calm Calm 2.3 mph3.7 kmh 29.92 in1013.2 mb - 0.00 in0.0 mm 0.00 in0.0 mm
07:40 AM 32.3°F0.2°C 31.0°F-0.6°C 95% 2.3 mph SSE3.7 kmh SSE 2.3 mph3.7 kmh 29.93 in1013.5 mb - 0.00 in0.0 mm 0.00 in0.0 mm
07:50 AM 32.3°F0.2°C 31.0°F-0.6°C 95% 2.3 mph WSW3.7 kmh WSW 2.3 mph3.7 kmh 29.92 in1013.2 mb - 0.00 in0.0 mm 0.00 in0.0 mm
08:00 AM 32.3°F0.2°C 31.0°F-0.6°C 95% 1.2 mph WNW1.9 kmh WNW 2.3 mph3.7 kmh 29.91 in1012.9 mb - 0.00 in0.0 mm 0.00 in0.0 mm
08:10 AM 32.3°F0.2°C 31.0°F-0.6°C 95% Calm Calm -- 29.91 in1012.9 mb - 0.00 in0.0 mm 0.00 in0.0 mm
08:20 AM 32.3°F0.2°C 31.0°F-0.6°C 95% 1.2 mph E1.9 kmh E 2.3 mph3.7 kmh 29.89 in1012.2 mb - 0.00 in0.0 mm 0.00 in0.0 mm
08:30 AM 32.3°F0.2°C 31.0°F-0.6°C 95% Calm Calm 1.2 mph1.9 kmh 29.89 in1012.2 mb - 0.00 in0.0 mm 0.00 in0.0 mm
08:40 AM 32.3°F0.2°C 31.1°F-0.5°C 95% 2.3 mph S3.7 kmh S 3.5 mph5.6 kmh 29.89 in1012.2 mb - 0.00 in0.0 mm 0.00 in0.0 mm
08:50 AM 32.4°F0.2°C 31.1°F-0.5°C 95% 2.3 mph NNE3.7 kmh NNE 2.3 mph3.7 kmh 29.89 in1012.2 mb - 0.00 in0.0 mm 0.00 in0.0 mm
09:00 AM 32.4°F0.2°C 31.1°F-0.5°C 95% 2.3 mph E3.7 kmh E 2.3 mph3.7 kmh 29.87 in1011.5 mb - 0.00 in0.0 mm 0.00 in0.0 mm
09:10 AM 32.5°F0.3°C 31.2°F-0.4°C 95% Calm Calm -- 29.85 in1010.8 mb - 0.00 in0.0 mm 0.00 in0.0 mm
09:20 AM 32.5°F0.3°C 31.3°F-0.4°C 95% Calm Calm -- 29.85 in1010.8 mb - 0.00 in0.0 mm 0.00 in0.0 mm
09:30 AM 32.7°F0.4°C 31.4°F-0.3°C 95% Calm Calm -- 29.85 in1010.8 mb - 0.00 in0.0 mm 0.00 in0.0 mm
09:40 AM 32.7°F0.4°C 31.4°F-0.3°C 95% Calm Calm -- 29.83 in1010.2 mb - 0.00 in0.0 mm 0.00 in0.0 mm
09:50 AM 32.8°F0.4°C 31.5°F-0.3°C 95% 1.2 mph WNW1.9 kmh WNW 2.3 mph3.7 kmh 29.83 in1010.2 mb - 0.00 in0.0 mm 0.00 in0.0 mm
10:00 AM 32.9°F0.5°C 31.6°F-0.2°C 95% Calm Calm -- 29.83 in1010.2 mb - 0.00 in0.0 mm 0.00 in0.0 mm
10:10 AM 32.9°F0.5°C 31.6°F-0.2°C 95% 1.2 mph W1.9 kmh W 2.3 mph3.7 kmh 29.83 in1010.2 mb - 0.03 in0.8 mm 0.03 in0.8 mm
10:20 AM 33.0°F0.6°C 31.7°F-0.2°C 95% 1.2 mph E1.9 kmh E 2.3 mph3.7 kmh 29.81 in1009.5 mb - 0.04 in1.0 mm 0.07 in1.8 mm
10:30 AM 33.2°F0.7°C 31.9°F-0.1°C 95% Calm Calm 2.3 mph3.7 kmh 29.81 in1009.5 mb - 0.03 in0.8 mm 0.09 in2.3 mm
10:40 AM 33.3°F0.7°C 32.0°F0.0°C 95% Calm Calm -- 29.79 in1008.8 mb - 0.02 in0.5 mm 0.10 in2.5 mm
10:50 AM 33.4°F0.8°C 32.1°F0.1°C 95% 1.2 mph WNW1.9 kmh WNW 1.2 mph1.9 kmh 29.78 in1008.5 mb - 0.00 in0.0 mm 0.10 in2.5 mm
11:00 AM 33.5°F0.8°C 32.2°F0.1°C 95% 2.3 mph WNW3.7 kmh WNW 2.3 mph3.7 kmh 29.77 in1008.1 mb - 0.01 in0.3 mm 0.11 in2.8 mm
11:10 AM 33.7°F0.9°C 32.4°F0.2°C 95% 1.2 mph WNW1.9 kmh WNW 1.2 mph1.9 kmh 29.76 in1007.8 mb - 0.00 in0.0 mm 0.11 in2.8 mm
11:20 AM 33.8°F1.0°C 32.5°F0.3°C 95% Calm Calm -- 29.75 in1007.5 mb - 0.00 in0.0 mm 0.11 in2.8 mm
11:30 AM 33.9°F1.1°C 32.6°F0.3°C 95% 1.2 mph W1.9 kmh W 2.3 mph3.7 kmh 29.75 in1007.5 mb - 0.01 in0.3 mm 0.12 in3.0 mm
11:40 AM 33.9°F1.1°C 32.6°F0.3°C 95% Calm Calm -- 29.74 in1007.1 mb - 0.02 in0.5 mm 0.13 in3.3 mm
11:50 AM 33.8°F1.0°C 32.5°F0.3°C 95% Calm Calm 2.3 mph3.7 kmh 29.73 in1006.8 mb - 0.02 in0.5 mm 0.14 in3.6 mm
12:00 PM 33.8°F1.0°C 32.5°F0.3°C 95% Calm Calm 2.3 mph3.7 kmh 29.73 in1006.8 mb - 0.04 in1.0 mm 0.18 in4.6 mm
12:10 PM 33.8°F1.0°C 32.5°F0.3°C 95% 1.2 mph SE1.9 kmh SE 2.3 mph3.7 kmh 29.72 in1006.4 mb - 0.07 in1.8 mm 0.25 in6.4 mm
12:20 PM 33.9°F1.1°C 32.6°F0.3°C 95% 2.3 mph WSW3.7 kmh WSW 2.3 mph3.7 kmh 29.71 in1006.1 mb - 0.08 in2.0 mm 0.32 in8.1 mm
12:30 PM 33.9°F1.1°C 32.7°F0.4°C 95% 1.2 mph E1.9 kmh E 2.3 mph3.7 kmh 29.69 in1005.4 mb - 0.08 in2.0 mm 0.40 in10.2 mm
12:40 PM 34.3°F1.3°C 33.0°F0.6°C 95% Calm Calm -- 29.69 in1005.4 mb - 0.08 in2.0 mm 0.47 in11.9 mm
12:50 PM 34.8°F1.6°C 33.6°F0.9°C 95% 3.5 mph SSE5.6 kmh SSE 5.8 mph9.3 kmh 29.67 in1004.7 mb - 0.09 in2.3 mm 0.55 in14.0 mm
01:00 PM 35.2°F1.8°C 33.9°F1.1°C 95% Calm Calm 1.2 mph1.9 kmh 29.66 in1004.4 mb - 0.06 in1.5 mm 0.61 in15.5 mm
01:10 PM 35.5°F1.9°C 34.2°F1.2°C 95% Calm Calm -- 29.65 in1004.1 mb - 0.01 in0.3 mm 0.62 in15.7 mm
01:20 PM 35.8°F2.1°C 34.5°F1.4°C 95% Calm Calm -- 29.64 in1003.7 mb - 0.00 in0.0 mm 0.62 in15.7 mm
01:30 PM 36.2°F2.3°C 34.9°F1.6°C 95% Calm Calm -- 29.63 in1003.4 mb - 0.01 in0.3 mm 0.63 in16.0 mm
01:40 PM 36.6°F2.6°C 35.3°F1.8°C 95% Calm Calm -- 29.61 in1002.7 mb - 0.02 in0.5 mm 0.64 in16.3 mm
01:50 PM 36.9°F2.7°C 35.6°F2.0°C 95% 2.3 mph NW3.7 kmh NW 2.3 mph3.7 kmh 29.59 in1002.0 mb - 0.02 in0.5 mm 0.66 in16.8 mm
02:00 PM 36.9°F2.7°C 35.6°F2.0°C 95% 2.3 mph W3.7 kmh W 2.3 mph3.7 kmh 29.60 in1002.4 mb - 0.04 in1.0 mm 0.70 in17.8 mm
02:10 PM 37.1°F2.8°C 35.8°F2.1°C 95% Calm Calm -- 29.57 in1001.4 mb - 0.04 in1.0 mm 0.74 in18.8 mm
02:20 PM 37.8°F3.2°C 36.5°F2.5°C 95% Calm Calm -- 29.56 in1001.0 mb - 0.03 in0.8 mm 0.77 in19.6 mm
02:30 PM 39.3°F4.1°C 38.3°F3.5°C 96% 2.3 mph NE3.7 kmh NE 2.3 mph3.7 kmh 29.55 in1000.7 mb - 0.02 in0.5 mm 0.79 in20.1 mm
02:40 PM 46.0°F7.8°C 45.2°F7.3°C 97% 1.2 mph ESE1.9 kmh ESE 2.3 mph3.7 kmh 29.53 in1000.0 mb - 0.04 in1.0 mm 0.82 in20.8 mm
02:50 PM 49.9°F9.9°C 49.0°F9.4°C 97% 1.2 mph WSW1.9 kmh WSW 1.2 mph1.9 kmh 29.53 in1000.0 mb - 0.02 in0.5 mm 0.84 in21.3 mm
03:00 PM 51.5°F10.8°C 50.6°F10.3°C 97% 3.5 mph SSE5.6 kmh SSE 8.1 mph13.0 kmh 29.54 in1000.3 mb - 0.02 in0.5 mm 0.86 in21.8 mm
03:10 PM 52.8°F11.6°C 52.0°F11.1°C 97% 4.6 mph ESE7.4 kmh ESE 9.2 mph14.8 kmh 29.54 in1000.3 mb - 0.04 in1.0 mm 0.90 in22.9 mm
03:20 PM 53.8°F12.1°C 52.9°F11.6°C 97% 4.6 mph S7.4 kmh S 11.5 mph18.5 kmh 29.53 in1000.0 mb - 0.03 in0.8 mm 0.93 in23.6 mm
03:30 PM 54.1°F12.3°C 53.3°F11.8°C 97% 5.8 mph SE9.3 kmh SE 9.2 mph14.8 kmh 29.51 in999.3 mb - 0.04 in1.0 mm 0.97 in24.6 mm
03:40 PM 54.6°F12.6°C 53.7°F12.1°C 97% 3.5 mph S5.6 kmh S 11.5 mph18.5 kmh 29.50 in999.0 mb - 0.04 in1.0 mm 1.01 in25.7 mm
03:50 PM 54.8°F12.7°C 54.0°F12.2°C 97% 5.8 mph S9.3 kmh S 9.2 mph14.8 kmh 29.49 in998.6 mb - 0.02 in0.5 mm 1.02 in25.9 mm
04:00 PM 54.7°F12.6°C 53.8°F12.1°C 97% 3.5 mph SSW5.6 kmh SSW 2.3 mph3.7 kmh 29.48 in998.3 mb - 0.01 in0.3 mm 1.03 in26.2 mm
04:10 PM 54.6°F12.6°C 53.8°F12.1°C 97% 2.3 mph S3.7 kmh S 6.9 mph11.1 kmh 29.51 in999.3 mb - 0.00 in0.0 mm 1.03 in26.2 mm
04:20 PM 54.7°F12.6°C 53.9°F12.2°C 97% 2.3 mph SE3.7 kmh SE 5.8 mph9.3 kmh 29.51 in999.3 mb - 0.02 in0.5 mm 1.05 in26.7 mm
04:30 PM 54.7°F12.6°C 53.9°F12.2°C 97% 2.3 mph SE3.7 kmh SE 5.8 mph9.3 kmh 29.50 in999.0 mb - 0.01 in0.3 mm 1.06 in26.9 mm
04:40 PM 54.6°F12.6°C 53.8°F12.1°C 97% 3.5 mph S5.6 kmh S 5.8 mph9.3 kmh 29.50 in999.0 mb - 0.00 in0.0 mm 1.06 in26.9 mm
04:50 PM 54.6°F12.6°C 53.8°F12.1°C 97% 2.3 mph S3.7 kmh S 2.3 mph3.7 kmh 29.49 in998.6 mb - 0.00 in0.0 mm 1.06 in26.9 mm
05:00 PM 54.7°F12.6°C 53.9°F12.2°C 97% 2.3 mph SSW3.7 kmh SSW 2.3 mph3.7 kmh 29.50 in999.0 mb - 0.00 in0.0 mm 1.06 in26.9 mm
05:10 PM 54.7°F12.6°C 53.9°F12.2°C 97% 3.5 mph SSE5.6 kmh SSE 2.3 mph3.7 kmh 29.51 in999.3 mb - 0.00 in0.0 mm 1.06 in26.9 mm
05:20 PM 54.7°F12.6°C 53.9°F12.2°C 97% 2.3 mph S3.7 kmh S 2.3 mph3.7 kmh 29.50 in999.0 mb - 0.00 in0.0 mm 1.06 in26.9 mm
05:30 PM 54.6°F12.6°C 53.8°F12.1°C 97% 1.2 mph NW1.9 kmh NW 2.3 mph3.7 kmh 29.50 in999.0 mb - 0.00 in0.0 mm 1.06 in26.9 mm
05:40 PM 54.5°F12.5°C 53.6°F12.0°C 97% 1.2 mph SW1.9 kmh SW 1.2 mph1.9 kmh 29.50 in999.0 mb - 0.00 in0.0 mm 1.06 in26.9 mm
05:50 PM 54.3°F12.4°C 53.5°F11.9°C 97% 1.2 mph ESE1.9 kmh ESE 1.2 mph1.9 kmh 29.51 in999.3 mb - 0.00 in0.0 mm 1.06 in26.9 mm
06:00 PM 54.2°F12.3°C 53.4°F11.9°C 97% 2.3 mph SW3.7 kmh SW 2.3 mph3.7 kmh 29.51 in999.3 mb - 0.00 in0.0 mm 1.06 in26.9 mm
06:10 PM 54.2°F12.3°C 53.4°F11.9°C 97% 1.2 mph N1.9 kmh N 2.3 mph3.7 kmh 29.51 in999.3 mb - 0.00 in0.0 mm 1.06 in26.9 mm
06:20 PM 47.5°F8.6°C 46.7°F8.2°C 97% 2.3 mph NNE3.7 kmh NNE 2.3 mph3.7 kmh 29.51 in999.3 mb - 0.00 in0.0 mm 1.06 in26.9 mm
06:30 PM 43.1°F6.2°C 42.0°F5.6°C 96% 2.3 mph WNW3.7 kmh WNW 2.3 mph3.7 kmh 29.51 in999.3 mb - 0.00 in0.0 mm 1.06 in26.9 mm
06:40 PM 41.2°F5.1°C 40.1°F4.5°C 96% 2.3 mph W3.7 kmh W 2.3 mph3.7 kmh 29.52 in999.7 mb - 0.00 in0.0 mm 1.06 in26.9 mm
06:50 PM 40.2°F4.6°C 39.1°F3.9°C 96% 1.2 mph WNW1.9 kmh WNW 2.3 mph3.7 kmh 29.52 in999.7 mb - 0.00 in0.0 mm 1.06 in26.9 mm
07:00 PM 39.4°F4.1°C 38.4°F3.6°C 96% 2.3 mph SW3.7 kmh SW 2.3 mph3.7 kmh 29.52 in999.7 mb - 0.00 in0.0 mm 1.06 in26.9 mm
07:10 PM 39.1°F3.9°C 38.0°F3.3°C 96% 1.2 mph WNW1.9 kmh WNW 2.3 mph3.7 kmh 29.51 in999.3 mb - 0.00 in0.0 mm 1.06 in26.9 mm
07:20 PM 38.8°F3.8°C 37.8°F3.2°C 96% 2.3 mph WSW3.7 kmh WSW 2.3 mph3.7 kmh 29.51 in999.3 mb - 0.00 in0.0 mm 1.06 in26.9 mm
07:30 PM 38.7°F3.7°C 37.7°F3.2°C 96% 1.2 mph WSW1.9 kmh WSW 2.3 mph3.7 kmh 29.52 in999.7 mb - 0.00 in0.0 mm 1.06 in26.9 mm
07:40 PM 38.8°F3.8°C 37.8°F3.2°C 96% 1.2 mph S1.9 kmh S 1.2 mph1.9 kmh 29.51 in999.3 mb - 0.00 in0.0 mm 1.06 in26.9 mm
07:50 PM 38.8°F3.8°C 37.8°F3.2°C 96% 2.3 mph WSW3.7 kmh WSW 2.3 mph3.7 kmh 29.51 in999.3 mb - 0.00 in0.0 mm 1.06 in26.9 mm
08:00 PM 38.8°F3.8°C 37.8°F3.2°C 96% Calm Calm 2.3 mph3.7 kmh 29.53 in1000.0 mb - 0.00 in0.0 mm 1.06 in26.9 mm
08:10 PM 38.8°F3.8°C 37.8°F3.2°C 96% Calm Calm -- 29.53 in1000.0 mb - 0.08 in2.0 mm 1.14 in29.0 mm
08:20 PM 38.9°F3.8°C 37.9°F3.3°C 96% Calm Calm -- 29.53 in1000.0 mb - 0.00 in0.0 mm 1.14 in29.0 mm
08:30 PM 38.8°F3.8°C 37.8°F3.2°C 96% Calm Calm -- 29.53 in1000.0 mb - 0.00 in0.0 mm 1.14 in29.0 mm
08:40 PM 38.4°F3.6°C 37.4°F3.0°C 96% Calm Calm -- 29.53 in1000.0 mb - 0.00 in0.0 mm 1.14 in29.0 mm
08:50 PM 37.8°F3.2°C 36.5°F2.5°C 95% Calm Calm -- 29.52 in999.7 mb - 0.00 in0.0 mm 1.14 in29.0 mm
09:00 PM 37.1°F2.8°C 35.8°F2.1°C 95% Calm Calm -- 29.52 in999.7 mb - 0.00 in0.0 mm 1.14 in29.0 mm
09:10 PM 37.0°F2.8°C 35.7°F2.1°C 95% Calm Calm -- 29.52 in999.7 mb - 0.00 in0.0 mm 1.14 in29.0 mm
09:20 PM 38.9°F3.8°C 37.9°F3.3°C 96% 1.2 mph WNW1.9 kmh WNW 2.3 mph3.7 kmh 29.53 in1000.0 mb - 0.00 in0.0 mm 1.14 in29.0 mm
09:30 PM 40.8°F4.9°C 39.7°F4.3°C 96% Calm Calm -- 29.51 in999.3 mb - 0.00 in0.0 mm 1.14 in29.0 mm
09:40 PM 40.9°F4.9°C 39.9°F4.4°C 96% 1.2 mph WSW1.9 kmh WSW 1.2 mph1.9 kmh 29.52 in999.7 mb - 0.00 in0.0 mm 1.14 in29.0 mm
09:50 PM 41.0°F5.0°C 40.0°F4.4°C 96% Calm Calm -- 29.52 in999.7 mb - 0.00 in0.0 mm 1.14 in29.0 mm
10:00 PM 41.4°F5.2°C 40.4°F4.7°C 96% Calm Calm -- 29.53 in1000.0 mb - 0.00 in0.0 mm 1.14 in29.0 mm
10:10 PM 41.5°F5.3°C 40.5°F4.7°C 96% 2.3 mph NNW3.7 kmh NNW 2.3 mph3.7 kmh 29.55 in1000.7 mb - 0.00 in0.0 mm 1.14 in29.0 mm
10:20 PM 43.1°F6.2°C 42.1°F5.6°C 96% 3.5 mph SW5.6 kmh SW 5.8 mph9.3 kmh 29.55 in1000.7 mb - 0.00 in0.0 mm 1.14 in29.0 mm
10:30 PM 43.7°F6.5°C 42.6°F5.9°C 96% 3.5 mph WSW5.6 kmh WSW 2.3 mph3.7 kmh 29.57 in1001.4 mb - 0.00 in0.0 mm 1.14 in29.0 mm
10:40 PM 43.4°F6.3°C 42.4°F5.8°C 96% 3.5 mph WSW5.6 kmh WSW 2.3 mph3.7 kmh 29.57 in1001.4 mb - 0.00 in0.0 mm 1.14 in29.0 mm
10:50 PM 42.9°F6.1°C 41.9°F5.5°C 96% 4.6 mph W7.4 kmh W 5.8 mph9.3 kmh 29.57 in1001.4 mb - 0.00 in0.0 mm 1.14 in29.0 mm
11:00 PM 42.1°F5.6°C 41.1°F5.1°C 96% 2.3 mph NW3.7 kmh NW 3.5 mph5.6 kmh 29.57 in1001.4 mb - 0.00 in0.0 mm 1.14 in29.0 mm
11:10 PM 41.9°F5.5°C 40.9°F4.9°C 96% 3.5 mph WSW5.6 kmh WSW 5.8 mph9.3 kmh 29.58 in1001.7 mb - 0.00 in0.0 mm 1.14 in29.0 mm
11:20 PM 41.5°F5.3°C 40.5°F4.7°C 96% 2.3 mph W3.7 kmh W 2.3 mph3.7 kmh 29.58 in1001.7 mb - 0.00 in0.0 mm 1.14 in29.0 mm
11:30 PM 41.2°F5.1°C 40.2°F4.6°C 96% 3.5 mph WSW5.6 kmh WSW 5.8 mph9.3 kmh 29.58 in1001.7 mb - 0.00 in0.0 mm 1.14 in29.0 mm
11:40 PM 40.8°F4.9°C 39.8°F4.3°C 96% 4.6 mph WSW7.4 kmh WSW 6.9 mph11.1 kmh 29.59 in1002.0 mb - 0.00 in0.0 mm 1.14 in29.0 mm
11:50 PM 40.5°F4.7°C 39.5°F4.2°C 96% 2.3 mph WSW3.7 kmh WSW 3.5 mph5.6 kmh 29.59 in1002.0 mb - 0.00 in0.0 mm 1.14 in29.0 mm